createdAt,value
2022-09-13T00:00:54.205Z,17.50
2022-09-13T00:03:21.758Z,17.70
2022-09-13T00:05:48.852Z,17.80
2022-09-13T00:08:16.553Z,17.50
2022-09-13T00:10:45.248Z,17.70
2022-09-13T00:13:14.343Z,17.90
2022-09-13T00:15:50.054Z,17.10
2022-09-13T00:18:18.565Z,17.70
2022-09-13T00:20:46.280Z,17.80
2022-09-13T00:23:14.063Z,17.00
2022-09-13T00:25:41.462Z,17.70
2022-09-13T00:28:08.467Z,17.30
2022-09-13T00:30:37.046Z,17.40
2022-09-13T00:33:04.870Z,17.70
2022-09-13T00:35:32.274Z,17.60
2022-09-13T00:38:02.098Z,17.60
2022-09-13T00:40:30.542Z,17.50
2022-09-13T00:42:57.719Z,17.30
2022-09-13T00:45:24.648Z,16.80
2022-09-13T00:48:05.548Z,17.50
2022-09-13T00:50:47.487Z,17.30
2022-09-13T00:53:17.705Z,16.60
2022-09-13T00:55:51.247Z,17.40
2022-09-13T00:58:29.775Z,17.60
2022-09-13T01:00:59.860Z,17.30
2022-09-13T01:03:30.932Z,17.10
2022-09-13T01:06:10.314Z,17.50
2022-09-13T01:08:41.602Z,17.30
2022-09-13T01:11:29.894Z,17.40
2022-09-13T01:13:58.474Z,16.70
2022-09-13T01:16:26.515Z,16.60
2022-09-13T01:18:53.576Z,16.80
2022-09-13T01:22:16.308Z,17.30
2022-09-13T01:25:19.885Z,17.20
2022-09-13T01:28:25.795Z,17.40
2022-09-13T01:31:02.684Z,17.00
2022-09-13T01:33:52.175Z,18.00
2022-09-13T01:36:49.532Z,17.00
2022-09-13T01:39:58.896Z,17.10
2022-09-13T01:43:10.057Z,17.30
2022-09-13T01:46:13.867Z,16.60
2022-09-13T01:49:10.038Z,17.20
2022-09-13T01:51:54.543Z,17.00
2022-09-13T01:54:58.655Z,16.50
2022-09-13T01:57:41.256Z,17.00
2022-09-13T02:00:15.429Z,17.10
2022-09-13T02:03:12.983Z,17.00
2022-09-13T02:05:48.091Z,16.90
2022-09-13T02:08:44.423Z,16.80
2022-09-13T02:11:17.331Z,16.90
2022-09-13T02:13:55.603Z,16.90
2022-09-13T02:16:41.990Z,16.70
2022-09-13T02:19:19.077Z,16.80
2022-09-13T02:21:55.397Z,17.90
2022-09-13T02:24:31.354Z,15.80
2022-09-13T02:27:04.229Z,16.90
2022-09-13T02:29:33.488Z,16.60
2022-09-13T02:32:40.690Z,16.90
2022-09-13T02:35:12.380Z,16.70
2022-09-13T02:37:42.920Z,16.70
2022-09-13T02:40:22.912Z,17.40
2022-09-13T02:43:16.264Z,16.60
2022-09-13T02:45:59.327Z,16.80
2022-09-13T02:48:40.301Z,16.70
2022-09-13T02:51:30.563Z,16.70
2022-09-13T02:54:11.265Z,16.60
2022-09-13T02:56:51.628Z,16.50
2022-09-13T02:59:22.207Z,16.10
2022-09-13T03:02:04.034Z,18.90
2022-09-13T03:04:32.621Z,16.50
2022-09-13T03:07:00.045Z,16.40
2022-09-13T03:09:27.640Z,16.40
2022-09-13T03:12:23.286Z,16.60
2022-09-13T03:15:03.784Z,16.30
2022-09-13T03:18:08.538Z,16.30
2022-09-13T03:20:58.996Z,16.40
2022-09-13T03:23:43.473Z,16.30
2022-09-13T03:26:59.232Z,17.40
2022-09-13T03:29:44.265Z,16.30
2022-09-13T03:32:55.415Z,17.60
2022-09-13T03:35:53.266Z,16.30
2022-09-13T03:38:32.020Z,16.20
2022-09-13T03:41:17.344Z,16.30
2022-09-13T03:43:58.904Z,16.00
2022-09-13T03:46:57.588Z,16.20
2022-09-13T03:49:27.525Z,16.20
2022-09-13T03:51:55.100Z,16.30
2022-09-13T03:54:32.519Z,16.30
2022-09-13T03:57:21.527Z,16.10
2022-09-13T03:59:58.833Z,16.30
2022-09-13T04:02:27.134Z,16.10
2022-09-13T04:04:54.288Z,16.10
2022-09-13T04:07:24.306Z,16.20
2022-09-13T04:09:51.578Z,16.10
2022-09-13T04:12:19.163Z,15.00
2022-09-13T04:14:46.484Z,16.30
2022-09-13T04:17:14.567Z,16.20
2022-09-13T04:19:44.632Z,16.00
2022-09-13T04:22:11.619Z,16.00
2022-09-13T04:24:39.749Z,16.00
2022-09-13T04:27:07.320Z,15.90
2022-09-13T04:29:34.271Z,16.10
2022-09-13T04:32:01.492Z,16.00
2022-09-13T04:34:28.460Z,16.10
2022-09-13T04:36:55.509Z,16.00
2022-09-13T04:39:23.773Z,15.50
2022-09-13T04:41:52.175Z,16.00
2022-09-13T04:44:20.543Z,15.90
2022-09-13T04:46:49.160Z,15.90
2022-09-13T04:49:17.938Z,16.00
2022-09-13T04:51:45.069Z,15.70
2022-09-13T04:54:15.638Z,15.90
2022-09-13T04:59:12.183Z,15.90
2022-09-13T05:01:39.547Z,15.80
2022-09-13T05:04:07.683Z,15.90
2022-09-13T05:06:35.040Z,15.90
2022-09-13T05:09:02.766Z,15.80
2022-09-13T05:11:30.362Z,15.90
2022-09-13T05:14:00.205Z,15.60
2022-09-13T05:16:32.688Z,15.90
2022-09-13T05:19:00.603Z,15.90
2022-09-13T05:21:30.973Z,16.40
2022-09-13T05:23:58.737Z,15.80
2022-09-13T05:26:29.551Z,15.80
2022-09-13T05:28:56.804Z,15.30
2022-09-13T05:31:44.561Z,15.60
2022-09-13T05:34:15.113Z,15.10
2022-09-13T05:36:43.123Z,15.30
2022-09-13T05:42:05.144Z,15.90
2022-09-13T05:44:32.177Z,16.80
2022-09-13T05:46:59.106Z,15.70
2022-09-13T05:49:26.246Z,15.50
2022-09-13T05:51:53.293Z,16.30
2022-09-13T05:54:20.397Z,15.60
2022-09-13T05:56:47.624Z,15.60
2022-09-13T05:59:14.876Z,15.60
2022-09-13T06:01:42.263Z,15.00
2022-09-13T06:04:09.287Z,15.50
2022-09-13T06:06:36.254Z,15.60
2022-09-13T06:09:06.617Z,15.70
2022-09-13T06:11:33.684Z,17.40
2022-09-13T06:14:00.782Z,15.50
2022-09-13T06:16:27.865Z,15.40
2022-09-13T06:18:55.076Z,14.90
2022-09-13T06:21:28.228Z,15.50
2022-09-13T06:23:56.630Z,15.20
2022-09-13T06:26:26.815Z,15.50
2022-09-13T06:28:57.126Z,16.50
2022-09-13T06:31:27.808Z,15.30
2022-09-13T06:34:02.443Z,15.40
2022-09-13T06:36:30.279Z,15.40
2022-09-13T06:38:58.045Z,15.30
2022-09-13T06:41:27.402Z,15.40
2022-09-13T06:43:57.578Z,15.30
2022-09-13T06:46:29.367Z,15.40
2022-09-13T06:49:00.052Z,14.20
2022-09-13T06:51:27.337Z,15.30
2022-09-13T06:53:56.643Z,15.20
2022-09-13T06:56:33.617Z,15.20
2022-09-13T06:59:04.855Z,15.30
2022-09-13T07:01:38.180Z,15.10
2022-09-13T07:04:09.710Z,16.00
2022-09-13T07:06:43.022Z,15.20
2022-09-13T07:09:18.118Z,15.30
2022-09-13T07:11:47.073Z,15.40
2022-09-13T07:14:26.483Z,15.20
2022-09-13T07:16:54.464Z,15.20
2022-09-13T07:19:24.357Z,15.40
2022-09-13T07:21:51.356Z,15.30
2022-09-13T07:24:19.475Z,17.00
2022-09-13T07:26:46.959Z,15.40
2022-09-13T07:29:19.185Z,15.90
2022-09-13T07:31:48.874Z,15.90
2022-09-13T07:34:25.048Z,16.30
2022-09-13T07:36:52.727Z,15.50
2022-09-13T07:39:22.630Z,14.60
2022-09-13T07:41:51.267Z,15.80
2022-09-13T07:44:18.412Z,15.70
2022-09-13T07:46:45.649Z,15.50
2022-09-13T07:49:16.229Z,15.50
2022-09-13T07:51:44.180Z,15.60
2022-09-13T07:54:15.373Z,15.60
2022-09-13T07:56:42.469Z,15.90
2022-09-13T07:59:15.505Z,15.80
2022-09-13T08:01:45.781Z,16.00
2022-09-13T08:04:24.629Z,15.30
2022-09-13T08:06:51.609Z,15.80
2022-09-13T08:09:18.969Z,16.10
2022-09-13T08:11:51.949Z,16.60
2022-09-13T08:14:21.304Z,16.80
2022-09-13T08:16:48.578Z,16.50
2022-09-13T08:19:18.353Z,17.20
2022-09-13T08:21:46.678Z,17.60
2022-09-13T08:24:21.615Z,17.70
2022-09-13T08:26:49.218Z,18.00
2022-09-13T08:29:17.129Z,18.00
2022-09-13T08:31:44.423Z,18.30
2022-09-13T08:34:14.598Z,18.20
2022-09-13T08:36:41.921Z,18.00
2022-09-13T08:39:11.933Z,17.90
2022-09-13T08:41:48.759Z,17.30
2022-09-13T08:44:30.125Z,17.10
2022-09-13T08:47:47.528Z,17.10
2022-09-13T08:50:28.474Z,17.30
2022-09-13T08:53:07.181Z,17.00
2022-09-13T08:55:51.776Z,17.10
2022-09-13T08:58:46.375Z,17.40
2022-09-13T09:01:31.516Z,17.60
2022-09-13T09:04:07.211Z,17.00
2022-09-13T09:06:36.547Z,17.30
2022-09-13T09:09:08.307Z,17.20
2022-09-13T09:11:55.184Z,16.90
2022-09-13T09:14:32.557Z,16.80
2022-09-13T09:17:04.712Z,17.00
2022-09-13T09:19:42.144Z,17.90
2022-09-13T09:22:24.696Z,16.80
2022-09-13T09:24:56.253Z,16.40
2022-09-13T09:27:23.583Z,17.50
2022-09-13T09:29:58.266Z,17.50
2022-09-13T09:33:11.584Z,17.60
2022-09-13T09:36:08.235Z,17.80
2022-09-13T09:38:43.326Z,18.10
2022-09-13T09:41:32.660Z,18.30
2022-09-13T09:44:27.657Z,17.60
2022-09-13T09:47:15.541Z,18.70
2022-09-13T09:50:12.141Z,18.30
2022-09-13T09:52:53.530Z,18.30
2022-09-13T09:55:45.779Z,18.20
2022-09-13T09:58:16.893Z,18.00
2022-09-13T10:00:56.272Z,17.80
2022-09-13T10:03:33.988Z,17.60
2022-09-13T10:06:14.895Z,17.90
2022-09-13T10:08:44.311Z,17.50
2022-09-13T10:11:11.982Z,17.60
2022-09-13T10:13:38.957Z,18.40
2022-09-13T10:16:34.093Z,18.50
2022-09-13T10:19:24.978Z,19.40
2022-09-13T10:22:04.167Z,18.60
2022-09-13T10:24:32.066Z,19.60
2022-09-13T10:26:59.743Z,19.80
2022-09-13T10:29:28.560Z,19.90
2022-09-13T10:31:58.463Z,20.00
2022-09-13T10:34:31.890Z,18.30
2022-09-13T10:37:06.528Z,19.80
2022-09-13T10:39:36.553Z,18.30
2022-09-13T10:42:07.148Z,19.10
2022-09-13T10:45:07.719Z,20.20
2022-09-13T10:47:49.202Z,19.00
2022-09-13T10:50:27.979Z,18.80
2022-09-13T10:53:00.426Z,19.70
2022-09-13T10:55:35.819Z,19.70
2022-09-13T10:58:02.885Z,20.20
2022-09-13T11:00:57.789Z,21.20
2022-09-13T11:03:52.969Z,21.50
2022-09-13T11:06:52.359Z,21.30
2022-09-13T11:09:55.486Z,21.80
2022-09-13T11:12:41.293Z,21.60
2022-09-13T11:15:28.057Z,22.60
2022-09-13T11:18:22.743Z,22.10
2022-09-13T11:21:26.382Z,22.20
2022-09-13T11:24:22.478Z,22.00
2022-09-13T11:27:38.146Z,22.60
2022-09-13T11:30:29.880Z,21.30
2022-09-13T11:33:21.913Z,21.30
2022-09-13T11:36:11.218Z,21.40
2022-09-13T11:38:56.822Z,20.90
2022-09-13T11:41:58.948Z,20.50
2022-09-13T11:45:18.180Z,20.70
2022-09-13T11:48:12.890Z,20.80
2022-09-13T11:51:36.103Z,20.00
2022-09-13T11:54:21.972Z,19.80
2022-09-13T11:56:56.101Z,20.30
2022-09-13T11:59:42.652Z,19.30
2022-09-13T12:02:24.524Z,19.40
2022-09-13T12:05:20.979Z,19.10
2022-09-13T12:07:52.685Z,20.30
2022-09-13T12:10:29.449Z,20.40
2022-09-13T12:12:58.283Z,20.70
2022-09-13T12:15:43.709Z,20.60
2022-09-13T12:18:17.651Z,21.60
2022-09-13T12:21:07.240Z,22.50
2022-09-13T12:23:50.215Z,22.10
2022-09-13T12:26:25.169Z,23.10
2022-09-13T12:29:01.761Z,23.90
2022-09-13T12:31:31.640Z,24.30
2022-09-13T12:33:59.874Z,24.40
2022-09-13T12:37:16.822Z,24.40
2022-09-13T12:40:12.139Z,24.50
2022-09-13T12:43:11.442Z,23.30
2022-09-13T12:46:04.185Z,22.90
2022-09-13T12:48:50.290Z,23.10
2022-09-13T12:52:01.903Z,23.50
2022-09-13T12:55:29.396Z,23.10
2022-09-13T12:58:34.458Z,23.00
2022-09-13T13:01:23.684Z,24.50
2022-09-13T13:03:58.020Z,24.20
2022-09-13T13:06:37.115Z,23.80
2022-09-13T13:09:27.882Z,24.90
2022-09-13T13:11:57.350Z,24.60
2022-09-13T13:14:39.410Z,25.00
2022-09-13T13:18:20.154Z,26.00
2022-09-13T13:20:56.215Z,26.40
2022-09-13T13:23:34.445Z,27.40
2022-09-13T13:26:23.564Z,25.90
2022-09-13T13:29:16.692Z,25.50
2022-09-13T13:31:57.000Z,25.50
2022-09-13T13:34:23.846Z,25.30
2022-09-13T13:37:13.574Z,22.90
2022-09-13T13:40:13.092Z,22.90
2022-09-13T13:42:41.163Z,22.70
2022-09-13T13:45:26.677Z,22.30
2022-09-13T13:48:15.205Z,21.90
2022-09-13T13:51:17.298Z,22.10
2022-09-13T13:53:52.812Z,22.80
2022-09-13T13:56:25.042Z,22.90
2022-09-13T13:59:13.928Z,24.20
2022-09-13T14:01:49.171Z,24.60
2022-09-13T14:04:40.747Z,24.30
2022-09-13T14:07:20.006Z,24.20
2022-09-13T14:10:17.491Z,24.20
2022-09-13T14:13:10.515Z,24.30
2022-09-13T14:15:51.736Z,24.30
2022-09-13T14:18:48.064Z,23.80
2022-09-13T14:21:30.109Z,24.70
2022-09-13T14:24:23.447Z,25.00
2022-09-13T14:26:58.516Z,24.90
2022-09-13T14:29:26.230Z,24.40
2022-09-13T14:32:07.151Z,24.50
2022-09-13T14:34:38.719Z,23.10
2022-09-13T14:37:17.477Z,23.10
2022-09-13T14:40:08.241Z,24.90
2022-09-13T14:42:47.679Z,24.80
2022-09-13T14:45:21.107Z,24.90
2022-09-13T14:48:18.537Z,24.50
2022-09-13T14:51:27.865Z,24.90
2022-09-13T14:54:08.599Z,24.90
2022-09-13T14:56:48.035Z,24.30
2022-09-13T14:59:44.844Z,24.70
2022-09-13T15:02:30.268Z,24.20
2022-09-13T15:05:00.756Z,24.80
2022-09-13T15:07:39.583Z,24.90
2022-09-13T15:10:12.536Z,24.80
2022-09-13T15:13:07.665Z,25.00
2022-09-13T15:15:41.208Z,25.40
2022-09-13T15:18:26.011Z,25.20
2022-09-13T15:21:01.632Z,25.30
2022-09-13T15:23:37.076Z,24.30
2022-09-13T15:26:23.095Z,25.10
2022-09-13T15:28:53.616Z,25.00
2022-09-13T15:31:26.253Z,25.00
2022-09-13T15:34:18.237Z,25.20
2022-09-13T15:37:01.651Z,24.70
2022-09-13T15:39:28.976Z,24.90
2022-09-13T15:42:00.914Z,24.50
2022-09-13T15:44:29.949Z,24.50
2022-09-13T15:47:04.436Z,25.30
2022-09-13T15:49:32.363Z,24.10
2022-09-13T15:52:05.625Z,24.00
2022-09-13T15:54:43.550Z,24.10
2022-09-13T15:57:22.061Z,24.20
2022-09-13T15:59:49.129Z,24.00
2022-09-13T16:02:21.663Z,23.90
2022-09-13T16:04:49.446Z,23.60
2022-09-13T16:07:16.827Z,24.80
2022-09-13T16:09:44.766Z,23.60
2022-09-13T16:12:11.814Z,23.70
2022-09-13T16:14:38.968Z,23.50
2022-09-13T16:17:22.833Z,23.50
2022-09-13T16:19:49.924Z,23.60
2022-09-13T16:22:17.156Z,23.60
2022-09-13T16:24:44.155Z,23.50
2022-09-13T16:27:17.953Z,23.60
2022-09-13T16:29:45.164Z,25.70
2022-09-13T16:32:12.488Z,23.20
2022-09-13T16:34:39.518Z,23.20
2022-09-13T16:37:06.488Z,23.20
2022-09-13T16:39:33.362Z,23.10
2022-09-13T16:42:00.302Z,23.10
2022-09-13T16:44:27.444Z,23.20
2022-09-13T16:46:54.500Z,23.20
2022-09-13T16:49:21.695Z,22.80
2022-09-13T16:51:48.649Z,22.60
2022-09-13T16:54:18.656Z,22.20
2022-09-13T16:56:45.631Z,22.40
2022-09-13T16:59:12.689Z,22.50
2022-09-13T17:01:39.950Z,22.20
2022-09-13T17:04:07.522Z,22.30
2022-09-13T17:06:34.529Z,22.30
2022-09-13T17:09:05.452Z,22.30
2022-09-13T17:11:41.331Z,22.20
2022-09-13T17:14:12.326Z,22.10
2022-09-13T17:16:50.726Z,22.40
2022-09-13T17:19:22.385Z,22.20
2022-09-13T17:21:50.315Z,22.30
2022-09-13T17:24:17.695Z,22.30
2022-09-13T17:26:46.835Z,22.00
2022-09-13T17:29:14.906Z,22.10
2022-09-13T17:31:43.593Z,22.40
2022-09-13T17:34:12.963Z,22.30
2022-09-13T17:36:41.865Z,22.10
2022-09-13T17:39:10.109Z,22.10
2022-09-13T17:41:37.724Z,22.10
2022-09-13T17:44:04.798Z,22.00
2022-09-13T17:46:31.936Z,21.90
2022-09-13T17:49:00.169Z,21.70
2022-09-13T17:51:32.838Z,21.90
2022-09-13T17:54:06.840Z,21.60
2022-09-13T17:56:40.972Z,21.90
2022-09-13T17:59:18.288Z,21.60
2022-09-13T18:01:51.839Z,21.80
2022-09-13T18:04:22.222Z,22.00
2022-09-13T18:06:52.269Z,23.10
2022-09-13T18:09:19.713Z,21.80
2022-09-13T18:11:46.795Z,21.90
2022-09-13T18:14:16.269Z,21.80
2022-09-13T18:16:43.882Z,21.80
2022-09-13T18:19:11.551Z,21.90
2022-09-13T18:21:38.602Z,22.10
2022-09-13T18:24:06.933Z,22.00
2022-09-13T18:26:34.255Z,22.00
2022-09-13T18:29:04.578Z,21.60
2022-09-13T18:31:34.569Z,21.90
2022-09-13T18:34:10.897Z,21.60
2022-09-13T18:36:38.815Z,20.60
2022-09-13T18:39:07.901Z,21.80
2022-09-13T18:41:42.509Z,21.50
2022-09-13T18:44:11.380Z,21.50
2022-09-13T18:46:39.257Z,21.80
2022-09-13T18:49:07.220Z,21.50
2022-09-13T18:51:36.473Z,21.60
2022-09-13T18:54:06.132Z,21.70
2022-09-13T18:56:36.079Z,21.50
2022-09-13T18:59:06.231Z,21.60
2022-09-13T19:01:36.797Z,21.60
2022-09-13T19:04:17.511Z,21.70
2022-09-13T19:06:48.393Z,21.70
2022-09-13T19:09:15.961Z,21.50
2022-09-13T19:11:47.749Z,21.30
2022-09-13T19:14:23.262Z,21.20
2022-09-13T19:16:52.532Z,21.60
2022-09-13T19:19:20.221Z,21.50
2022-09-13T19:21:47.406Z,21.40
2022-09-13T19:24:20.374Z,21.40
2022-09-13T19:26:51.183Z,21.40
2022-09-13T19:29:22.980Z,21.20
2022-09-13T19:31:52.530Z,21.40
2022-09-13T19:34:22.257Z,22.10
2022-09-13T19:36:53.506Z,21.30
2022-09-13T19:39:20.459Z,21.30
2022-09-13T19:41:47.527Z,20.80
2022-09-13T19:44:14.761Z,21.00
2022-09-13T19:46:42.832Z,21.30
2022-09-13T19:49:14.682Z,21.30
2022-09-13T19:51:45.531Z,20.80
2022-09-13T19:54:18.257Z,21.20
2022-09-13T19:56:45.341Z,21.20
2022-09-13T19:59:16.097Z,21.20
2022-09-13T20:01:45.620Z,21.20
2022-09-13T20:04:17.011Z,21.20
2022-09-13T20:06:47.371Z,21.20
2022-09-13T20:09:16.402Z,20.80
2022-09-13T20:11:45.422Z,21.10
2022-09-13T20:14:14.821Z,21.10
2022-09-13T20:16:42.912Z,20.60
2022-09-13T20:19:39.426Z,21.70
2022-09-13T20:22:09.856Z,20.80
2022-09-13T20:24:37.352Z,20.90
2022-09-13T20:27:04.522Z,20.90
2022-09-13T20:29:31.696Z,20.90
2022-09-13T20:31:59.532Z,20.80
2022-09-13T20:34:27.108Z,20.90
2022-09-13T20:36:54.162Z,22.00
2022-09-13T20:39:21.116Z,19.50
2022-09-13T20:41:50.146Z,20.80
2022-09-13T20:44:17.458Z,20.80
2022-09-13T20:46:44.501Z,20.80
2022-09-13T20:49:11.851Z,20.70
2022-09-13T20:51:39.060Z,20.70
2022-09-13T20:54:06.932Z,20.80
2022-09-13T20:56:33.829Z,20.80
2022-09-13T20:59:01.128Z,20.20
2022-09-13T21:01:30.211Z,20.50
2022-09-13T21:04:00.101Z,22.50
2022-09-13T21:06:30.368Z,20.60
2022-09-13T21:09:00.018Z,20.60
2022-09-13T21:11:35.028Z,20.50
2022-09-13T21:14:09.537Z,20.30
2022-09-13T21:16:39.685Z,20.40
2022-09-13T21:19:08.135Z,20.30
2022-09-13T21:21:39.796Z,20.50
2022-09-13T21:24:09.780Z,20.20
2022-09-13T21:26:41.931Z,20.60
2022-09-13T21:29:10.345Z,20.40
2022-09-13T21:31:37.988Z,20.40
2022-09-13T21:34:10.917Z,20.50
2022-09-13T21:36:38.000Z,20.40
2022-09-13T21:39:05.951Z,20.30
2022-09-13T21:41:33.442Z,20.30
2022-09-13T21:44:00.495Z,20.40
2022-09-13T21:46:34.033Z,20.50
2022-09-13T21:49:04.905Z,20.20
2022-09-13T21:51:38.969Z,20.50
2022-09-13T21:54:10.883Z,20.40
2022-09-13T21:56:42.017Z,20.70
2022-09-13T21:59:17.061Z,21.60
2022-09-13T22:01:47.772Z,20.30
2022-09-13T22:04:24.146Z,20.40
2022-09-13T22:06:53.626Z,20.40
2022-09-13T22:09:26.236Z,19.90
2022-09-13T22:11:53.942Z,20.40
2022-09-13T22:14:22.464Z,20.30
2022-09-13T22:16:50.815Z,20.20
2022-09-13T22:19:25.926Z,20.40
2022-09-13T22:21:59.581Z,20.00
2022-09-13T22:24:31.142Z,20.30
2022-09-13T22:26:58.987Z,20.30
2022-09-13T22:29:26.795Z,20.00
2022-09-13T22:31:53.846Z,20.20
2022-09-13T22:34:24.307Z,20.00
2022-09-13T22:36:53.654Z,20.20
2022-09-13T22:39:20.697Z,19.80
2022-09-13T22:41:47.555Z,20.20
2022-09-13T22:44:15.607Z,20.20
2022-09-13T22:46:44.920Z,20.20
2022-09-13T22:49:15.100Z,20.30
2022-09-13T22:51:44.999Z,21.50
2022-09-13T22:54:13.097Z,20.10
2022-09-13T22:56:40.155Z,19.90
2022-09-13T22:59:12.385Z,19.80
2022-09-13T23:01:39.445Z,19.80
2022-09-13T23:04:07.162Z,19.60
2022-09-13T23:06:35.368Z,20.10
2022-09-13T23:09:06.400Z,19.20
2022-09-13T23:11:39.047Z,19.80
2022-09-13T23:14:10.341Z,19.80
2022-09-13T23:16:46.919Z,19.70
2022-09-13T23:19:15.247Z,19.60
2022-09-13T23:21:43.612Z,19.80
2022-09-13T23:24:17.537Z,20.00
2022-09-13T23:26:45.871Z,20.90
2022-09-13T23:29:17.593Z,19.70
2022-09-13T23:31:46.121Z,20.60
2022-09-13T23:34:14.236Z,20.00
2022-09-13T23:36:43.922Z,19.90
2022-09-13T23:39:16.572Z,19.90
2022-09-13T23:41:45.087Z,19.70
2022-09-13T23:44:12.088Z,19.20
2022-09-13T23:46:39.266Z,19.50
2022-09-13T23:49:06.354Z,19.70
2022-09-13T23:51:33.617Z,19.30
2022-09-13T23:54:01.124Z,19.40
2022-09-13T23:56:30.939Z,19.60
2022-09-13T23:59:00.277Z,19.60
